createdAt,value
2022-09-12T00:01:28.550Z,65.56
2022-09-12T00:03:59.350Z,64.63
2022-09-12T00:06:30.865Z,65.34
2022-09-12T00:09:01.969Z,64.60
2022-09-12T00:11:30.760Z,65.53
2022-09-12T00:14:00.567Z,65.43
2022-09-12T00:16:31.004Z,64.54
2022-09-12T00:18:59.311Z,65.07
2022-09-12T00:21:27.589Z,65.67
2022-09-12T00:23:56.153Z,65.03
2022-09-12T00:26:24.127Z,65.22
2022-09-12T00:28:52.526Z,63.70
2022-09-12T00:31:24.391Z,62.33
2022-09-12T00:33:53.814Z,63.31
2022-09-12T00:36:24.912Z,61.91
2022-09-12T00:38:54.821Z,62.55
2022-09-12T00:41:26.232Z,61.63
2022-09-12T00:43:57.298Z,61.26
2022-09-12T00:46:53.211Z,61.49
2022-09-12T00:49:28.672Z,63.24
2022-09-12T00:51:59.909Z,63.48
2022-09-12T00:54:32.508Z,63.90
2022-09-12T00:57:03.180Z,63.51
2022-09-12T00:59:49.380Z,61.91
2022-09-12T01:02:17.462Z,62.10
2022-09-12T01:04:45.449Z,62.02
2022-09-12T01:07:15.453Z,62.74
2022-09-12T01:09:45.423Z,62.34
2022-09-12T01:12:15.629Z,63.07
2022-09-12T01:14:43.781Z,61.62
2022-09-12T01:17:14.014Z,62.26
2022-09-12T01:20:00.553Z,62.09
2022-09-12T01:22:52.892Z,61.87
2022-09-12T01:25:48.891Z,62.75
2022-09-12T01:28:34.748Z,62.82
2022-09-12T01:31:08.878Z,62.26
2022-09-12T01:33:56.571Z,62.56
2022-09-12T01:36:34.665Z,63.60
2022-09-12T01:39:31.392Z,62.91
2022-09-12T01:42:28.027Z,64.09
2022-09-12T01:45:10.113Z,64.06
2022-09-12T01:47:45.792Z,64.32
2022-09-12T01:50:19.029Z,64.54
2022-09-12T01:53:02.503Z,64.17
2022-09-12T01:55:35.161Z,63.81
2022-09-12T01:58:14.642Z,64.58
2022-09-12T02:00:53.326Z,64.84
2022-09-12T02:03:27.861Z,64.65
2022-09-12T02:06:01.665Z,65.24
2022-09-12T02:08:35.255Z,65.68
2022-09-12T02:11:13.114Z,66.54
2022-09-12T02:13:55.825Z,65.89
2022-09-12T02:16:31.551Z,65.34
2022-09-12T02:19:07.737Z,65.40
2022-09-12T02:21:39.841Z,65.88
2022-09-12T02:24:10.523Z,66.17
2022-09-12T02:27:03.677Z,65.61
2022-09-12T02:29:31.560Z,65.55
2022-09-12T02:32:05.152Z,65.26
2022-09-12T02:34:35.515Z,66.57
2022-09-12T02:37:19.320Z,66.62
2022-09-12T02:39:47.909Z,66.48
2022-09-12T02:42:15.981Z,66.96
2022-09-12T02:44:43.832Z,67.29
2022-09-12T02:47:21.286Z,66.93
2022-09-12T02:49:49.085Z,67.19
2022-09-12T02:52:17.162Z,67.81
2022-09-12T02:54:45.358Z,67.80
2022-09-12T02:57:22.353Z,68.30
2022-09-12T02:59:55.099Z,68.46
2022-09-12T03:02:58.243Z,67.89
2022-09-12T03:05:35.523Z,67.56
2022-09-12T03:08:31.530Z,67.54
2022-09-12T03:11:26.599Z,67.53
2022-09-12T03:14:07.412Z,68.08
2022-09-12T03:17:04.142Z,67.30
2022-09-12T03:19:32.199Z,68.71
2022-09-12T03:22:07.343Z,67.63
2022-09-12T03:24:43.235Z,67.08
2022-09-12T03:27:19.475Z,66.45
2022-09-12T03:29:49.084Z,66.54
2022-09-12T03:32:16.977Z,66.32
2022-09-12T03:34:44.783Z,65.62
2022-09-12T03:37:12.600Z,66.35
2022-09-12T03:39:40.618Z,65.40
2022-09-12T03:42:08.454Z,65.88
2022-09-12T03:44:36.583Z,66.63
2022-09-12T03:47:06.973Z,66.55
2022-09-12T03:49:38.316Z,66.02
2022-09-12T03:52:06.023Z,66.55
2022-09-12T03:54:33.846Z,66.89
2022-09-12T03:57:01.629Z,66.69
2022-09-12T03:59:29.534Z,65.74
2022-09-12T04:01:57.431Z,66.58
2022-09-12T04:04:25.296Z,65.95
2022-09-12T04:06:53.111Z,65.84
2022-09-12T04:09:20.933Z,65.36
2022-09-12T04:11:48.927Z,66.06
2022-09-12T04:14:16.987Z,65.55
2022-09-12T04:16:44.871Z,65.71
2022-09-12T04:19:12.794Z,66.19
2022-09-12T04:21:40.584Z,66.00
2022-09-12T04:24:08.324Z,66.49
2022-09-12T04:26:36.115Z,65.99
2022-09-12T04:29:04.117Z,66.81
2022-09-12T04:31:31.933Z,63.81
2022-09-12T04:34:01.293Z,61.50
2022-09-12T04:36:29.817Z,60.34
2022-09-12T04:38:57.720Z,59.53
2022-09-12T04:41:34.561Z,58.29
2022-09-12T04:44:07.753Z,58.25
2022-09-12T04:46:37.855Z,57.17
2022-09-12T04:49:06.328Z,57.76
2022-09-12T04:51:36.326Z,58.43
2022-09-12T04:54:07.689Z,58.12
2022-09-12T04:56:39.685Z,57.16
2022-09-12T04:59:08.821Z,56.90
2022-09-12T05:01:36.998Z,58.39
2022-09-12T05:04:05.143Z,58.92
2022-09-12T05:06:35.602Z,58.40
2022-09-12T05:09:05.968Z,57.80
2022-09-12T05:12:02.687Z,58.50
2022-09-12T05:14:24.607Z,57.30
2022-09-12T05:16:52.442Z,57.20
2022-09-12T05:19:20.275Z,57.32
2022-09-12T05:21:48.148Z,59.05
2022-09-12T05:24:16.106Z,57.69
2022-09-12T05:26:44.082Z,58.04
2022-09-12T05:29:13.303Z,57.58
2022-09-12T05:31:41.628Z,57.75
2022-09-12T05:34:10.389Z,57.00
2022-09-12T05:36:38.818Z,56.18
2022-09-12T05:39:06.888Z,56.93
2022-09-12T05:41:36.119Z,55.86
2022-09-12T05:44:07.083Z,54.75
2022-09-12T05:46:40.338Z,54.09
2022-09-12T05:49:11.615Z,53.88
2022-09-12T05:51:43.936Z,54.21
2022-09-12T05:54:17.240Z,54.14
2022-09-12T05:56:46.023Z,53.45
2022-09-12T05:59:17.299Z,53.89
2022-09-12T06:01:45.465Z,54.26
2022-09-12T06:04:13.700Z,53.87
2022-09-12T06:06:45.707Z,53.98
2022-09-12T06:09:16.092Z,54.32
2022-09-12T06:11:45.800Z,53.56
2022-09-12T06:14:15.839Z,53.61
2022-09-12T06:16:44.274Z,53.64
2022-09-12T06:19:21.890Z,52.99
2022-09-12T06:21:51.720Z,53.34
2022-09-12T06:24:21.021Z,53.17
2022-09-12T06:26:49.969Z,52.60
2022-09-12T06:29:19.296Z,52.62
2022-09-12T06:31:47.088Z,53.37
2022-09-12T06:34:16.357Z,54.07
2022-09-12T06:36:49.251Z,55.37
2022-09-12T06:39:19.421Z,54.59
2022-09-12T06:41:49.028Z,53.63
2022-09-12T06:44:21.310Z,53.25
2022-09-12T06:46:49.919Z,52.23
2022-09-12T06:49:17.968Z,52.48
2022-09-12T06:51:46.047Z,52.42
2022-09-12T06:54:15.690Z,52.02
2022-09-12T06:56:44.497Z,52.17
2022-09-12T06:59:12.574Z,54.28
2022-09-12T07:01:42.062Z,53.52
2022-09-12T07:04:10.591Z,53.81
2022-09-12T07:06:40.962Z,54.75
2022-09-12T07:09:12.371Z,52.79
2022-09-12T07:11:42.107Z,51.70
2022-09-12T07:14:14.083Z,51.49
2022-09-12T07:16:42.278Z,51.58
2022-09-12T07:19:10.958Z,51.54
2022-09-12T07:21:41.654Z,51.58
2022-09-12T07:24:11.046Z,52.20
2022-09-12T07:26:40.670Z,50.87
2022-09-12T07:32:02.471Z,51.19
2022-09-12T07:34:30.291Z,51.48
2022-09-12T07:36:58.866Z,50.58
2022-09-12T07:39:26.628Z,51.11
2022-09-12T07:41:54.890Z,51.14
2022-09-12T07:44:22.978Z,50.71
2022-09-12T07:46:50.949Z,50.72
2022-09-12T07:49:18.805Z,49.58
2022-09-12T07:51:46.606Z,48.97
2022-09-12T07:54:15.030Z,49.08
2022-09-12T07:56:42.904Z,49.95
2022-09-12T07:59:10.670Z,47.93
2022-09-12T08:01:40.095Z,49.47
2022-09-12T08:04:08.362Z,49.28
2022-09-12T08:06:37.162Z,49.48
2022-09-12T08:09:06.413Z,49.36
2022-09-12T08:11:34.749Z,49.09
2022-09-12T08:14:05.712Z,48.97
2022-09-12T08:16:34.723Z,49.07
2022-09-12T08:19:03.407Z,48.41
2022-09-12T08:21:33.221Z,48.51
2022-09-12T08:24:04.115Z,49.64
2022-09-12T08:26:33.378Z,49.04
2022-09-12T08:29:01.377Z,49.26
2022-09-12T08:31:29.240Z,49.34
2022-09-12T08:33:57.952Z,48.75
2022-09-12T08:36:27.834Z,49.50
2022-09-12T08:38:59.857Z,48.68
2022-09-12T08:41:40.805Z,48.06
2022-09-12T08:44:14.354Z,48.40
2022-09-12T08:46:47.809Z,48.93
2022-09-12T08:49:29.274Z,48.81
2022-09-12T08:52:03.177Z,48.25
2022-09-12T08:54:35.323Z,48.67
2022-09-12T08:57:05.812Z,48.35
2022-09-12T08:59:42.376Z,46.75
2022-09-12T09:02:27.055Z,47.75
2022-09-12T09:05:12.754Z,46.33
2022-09-12T09:07:55.775Z,46.66
2022-09-12T09:10:41.451Z,46.77
2022-09-12T09:13:40.937Z,45.44
2022-09-12T09:16:32.194Z,44.98
2022-09-12T09:19:04.684Z,45.99
2022-09-12T09:21:51.186Z,46.71
2022-09-12T09:24:24.889Z,47.67
2022-09-12T09:27:18.328Z,48.06
2022-09-12T09:29:56.266Z,49.00
2022-09-12T09:32:32.745Z,47.84
2022-09-12T09:35:36.652Z,47.52
2022-09-12T09:38:30.706Z,47.79
2022-09-12T09:41:21.822Z,47.75
2022-09-12T09:43:49.736Z,47.25
2022-09-12T09:46:17.620Z,47.70
2022-09-12T09:48:49.707Z,47.57
2022-09-12T09:51:26.224Z,46.49
2022-09-12T09:54:24.873Z,46.79
2022-09-12T09:56:53.014Z,46.25
2022-09-12T09:59:20.738Z,45.74
2022-09-12T10:01:55.314Z,44.46
2022-09-12T10:04:29.587Z,44.17
2022-09-12T10:07:00.139Z,45.08
2022-09-12T10:09:36.872Z,44.90
2022-09-12T10:12:26.465Z,44.01
2022-09-12T10:15:00.837Z,44.25
2022-09-12T10:17:49.945Z,43.38
2022-09-12T10:20:45.704Z,43.34
2022-09-12T10:23:20.807Z,44.10
2022-09-12T10:25:55.272Z,42.96
2022-09-12T10:28:30.663Z,43.47
2022-09-12T10:31:02.030Z,43.05
2022-09-12T10:33:30.201Z,42.57
2022-09-12T10:35:58.175Z,42.21
2022-09-12T10:38:31.584Z,42.44
2022-09-12T10:41:11.639Z,41.54
2022-09-12T10:43:41.669Z,43.21
2022-09-12T10:46:18.462Z,42.22
2022-09-12T10:48:51.920Z,42.50
2022-09-12T10:51:25.997Z,43.01
2022-09-12T10:54:02.830Z,42.42
2022-09-12T10:56:47.421Z,41.28
2022-09-12T10:59:56.658Z,42.27
2022-09-12T11:02:53.744Z,42.42
2022-09-12T11:05:46.361Z,41.93
2022-09-12T11:08:32.935Z,43.27
2022-09-12T11:11:13.887Z,42.85
2022-09-12T11:14:00.305Z,41.29
2022-09-12T11:16:42.962Z,41.11
2022-09-12T11:19:32.385Z,40.43
2022-09-12T11:22:04.321Z,41.45
2022-09-12T11:24:45.389Z,40.28
2022-09-12T11:27:47.806Z,39.72
2022-09-12T11:30:18.072Z,39.35
2022-09-12T11:33:10.519Z,38.78
2022-09-12T11:35:53.051Z,39.43
2022-09-12T11:38:44.602Z,39.13
2022-09-12T11:41:37.036Z,40.49
2022-09-12T11:44:26.238Z,39.79
2022-09-12T11:46:54.396Z,40.92
2022-09-12T11:49:37.926Z,40.25
2022-09-12T11:52:23.979Z,39.85
2022-09-12T11:55:02.020Z,38.97
2022-09-12T11:57:38.944Z,40.03
2022-09-12T12:00:08.482Z,39.59
2022-09-12T12:03:04.310Z,41.24
2022-09-12T12:05:36.438Z,40.49
2022-09-12T12:08:06.426Z,40.70
2022-09-12T12:10:44.456Z,41.17
2022-09-12T12:13:23.836Z,41.82
2022-09-12T12:16:02.355Z,39.91
2022-09-12T12:18:37.154Z,39.54
2022-09-12T12:21:35.006Z,40.17
2022-09-12T12:24:09.231Z,39.19
2022-09-12T12:26:40.191Z,39.28
2022-09-12T12:29:17.964Z,38.47
2022-09-12T12:32:02.241Z,39.01
2022-09-12T12:34:32.257Z,38.91
2022-09-12T12:37:20.594Z,39.04
2022-09-12T12:39:54.251Z,38.80
2022-09-12T12:42:35.495Z,38.61
2022-09-12T12:45:20.008Z,38.47
2022-09-12T12:47:56.607Z,37.07
2022-09-12T12:50:28.613Z,37.92
2022-09-12T12:53:22.157Z,37.29
2022-09-12T12:55:53.789Z,37.65
2022-09-12T12:58:23.302Z,36.67
2022-09-12T13:01:10.780Z,35.77
2022-09-12T13:04:03.219Z,37.05
2022-09-12T13:06:41.935Z,37.81
2022-09-12T13:09:23.375Z,38.10
2022-09-12T13:12:20.095Z,38.32
2022-09-12T13:14:52.334Z,37.26
2022-09-12T13:17:23.194Z,35.79
2022-09-12T13:20:16.871Z,36.15
2022-09-12T13:22:45.846Z,36.74
2022-09-12T13:25:29.620Z,36.66
2022-09-12T13:28:14.259Z,36.85
2022-09-12T13:31:15.030Z,36.40
2022-09-12T13:33:51.221Z,35.87
2022-09-12T13:36:31.155Z,35.96
2022-09-12T13:39:25.166Z,35.36
2022-09-12T13:42:03.451Z,36.02
2022-09-12T13:44:43.645Z,35.64
2022-09-12T13:47:20.133Z,35.65
2022-09-12T13:49:48.824Z,34.71
2022-09-12T13:52:21.499Z,35.03
2022-09-12T13:54:54.922Z,35.43
2022-09-12T13:57:34.197Z,35.61
2022-09-12T14:00:20.153Z,35.72
2022-09-12T14:02:48.645Z,35.28
2022-09-12T14:05:26.512Z,35.58
2022-09-12T14:08:04.706Z,36.19
2022-09-12T14:10:35.148Z,36.09
2022-09-12T14:13:05.657Z,35.87
2022-09-12T14:15:37.165Z,35.84
2022-09-12T14:18:08.821Z,35.90
2022-09-12T14:20:39.560Z,36.11
2022-09-12T14:23:26.940Z,35.46
2022-09-12T14:25:56.920Z,34.86
2022-09-12T14:28:28.325Z,36.00
2022-09-12T14:31:03.525Z,35.85
2022-09-12T14:33:53.472Z,36.76
2022-09-12T14:36:32.696Z,36.15
2022-09-12T14:39:07.642Z,35.47
2022-09-12T14:41:42.480Z,36.19
2022-09-12T14:44:27.353Z,36.99
2022-09-12T14:46:59.756Z,37.34
2022-09-12T14:49:36.949Z,37.47
2022-09-12T14:52:08.092Z,36.43
2022-09-12T14:54:38.864Z,36.37
2022-09-12T14:57:31.107Z,37.06
2022-09-12T15:00:14.525Z,37.57
2022-09-12T15:02:43.719Z,37.94
2022-09-12T15:05:11.488Z,37.47
2022-09-12T15:08:05.448Z,37.89
2022-09-12T15:10:37.853Z,38.23
2022-09-12T15:13:14.596Z,38.24
2022-09-12T15:16:10.612Z,36.99
2022-09-12T15:18:38.731Z,38.25
2022-09-12T15:21:10.950Z,37.31
2022-09-12T15:23:46.356Z,39.10
2022-09-12T15:26:19.639Z,39.26
2022-09-12T15:28:47.812Z,37.60
2022-09-12T15:31:29.238Z,38.29
2022-09-12T15:34:00.395Z,38.94
2022-09-12T15:36:29.304Z,38.27
2022-09-12T15:38:57.355Z,39.17
2022-09-12T15:41:32.772Z,38.27
2022-09-12T15:44:01.518Z,38.36
2022-09-12T15:46:29.483Z,39.21
2022-09-12T15:48:57.348Z,38.80
2022-09-12T15:51:25.414Z,38.65
2022-09-12T15:53:53.346Z,40.38
2022-09-12T15:56:22.668Z,39.23
2022-09-12T15:58:58.896Z,39.54
2022-09-12T16:01:29.177Z,37.88
2022-09-12T16:03:57.826Z,38.62
2022-09-12T16:06:25.740Z,40.21
2022-09-12T16:08:53.694Z,39.24
2022-09-12T16:11:27.330Z,38.68
2022-09-12T16:13:56.977Z,40.46
2022-09-12T16:16:24.889Z,39.38
2022-09-12T16:18:52.750Z,40.87
2022-09-12T16:21:23.229Z,39.80
2022-09-12T16:23:51.322Z,40.41
2022-09-12T16:26:20.599Z,40.11
2022-09-12T16:28:54.111Z,41.63
2022-09-12T16:31:23.127Z,40.22
2022-09-12T16:33:51.048Z,39.62
2022-09-12T16:36:21.501Z,39.02
2022-09-12T16:38:54.090Z,40.94
2022-09-12T16:41:25.266Z,40.69
2022-09-12T16:43:53.767Z,40.17
2022-09-12T16:46:26.628Z,41.62
2022-09-12T16:48:57.005Z,39.75
2022-09-12T16:51:28.246Z,40.49
2022-09-12T16:53:56.434Z,39.89
2022-09-12T16:56:26.310Z,41.06
2022-09-12T16:58:55.280Z,40.74
2022-09-12T17:01:25.766Z,41.20
2022-09-12T17:03:56.634Z,40.24
2022-09-12T17:06:25.584Z,40.46
2022-09-12T17:08:55.632Z,40.33
2022-09-12T17:11:33.867Z,41.59
2022-09-12T17:14:06.698Z,40.59
2022-09-12T17:16:36.900Z,41.57
2022-09-12T17:19:06.506Z,41.59
2022-09-12T17:21:35.511Z,43.05
2022-09-12T17:24:04.046Z,42.83
2022-09-12T17:26:32.257Z,42.01
2022-09-12T17:29:00.744Z,41.49
2022-09-12T17:31:29.259Z,42.86
2022-09-12T17:34:01.395Z,42.70
2022-09-12T17:36:31.626Z,43.89
2022-09-12T17:38:59.983Z,43.79
2022-09-12T17:41:31.883Z,43.28
2022-09-12T17:44:01.452Z,43.28
2022-09-12T17:46:37.809Z,42.84
2022-09-12T17:49:14.544Z,43.68
2022-09-12T17:51:44.026Z,43.11
2022-09-12T17:54:15.838Z,42.42
2022-09-12T17:56:46.211Z,43.21
2022-09-12T17:59:19.687Z,43.13
2022-09-12T18:02:08.827Z,43.00
2022-09-12T18:04:36.740Z,43.15
2022-09-12T18:07:05.155Z,43.40
2022-09-12T18:09:33.127Z,43.54
2022-09-12T18:12:01.109Z,43.37
2022-09-12T18:14:29.280Z,43.16
2022-09-12T18:16:57.907Z,43.44
2022-09-12T18:19:28.006Z,43.41
2022-09-12T18:21:57.521Z,44.00
2022-09-12T18:24:25.504Z,43.80
2022-09-12T18:26:56.689Z,44.08
2022-09-12T18:29:25.746Z,44.09
2022-09-12T18:31:53.888Z,44.25
2022-09-12T18:34:22.962Z,44.40
2022-09-12T18:36:56.392Z,44.34
2022-09-12T18:39:28.077Z,45.02
2022-09-12T18:41:56.266Z,45.16
2022-09-12T18:44:25.506Z,45.40
2022-09-12T18:46:53.598Z,45.87
2022-09-12T18:49:21.685Z,45.98
2022-09-12T18:51:49.830Z,46.25
2022-09-12T18:54:18.173Z,46.79
2022-09-12T18:56:46.183Z,46.65
2022-09-12T18:59:15.053Z,46.60
2022-09-12T19:01:44.036Z,47.59
2022-09-12T19:04:13.606Z,47.85
2022-09-12T19:06:44.571Z,47.90
2022-09-12T19:09:15.107Z,47.67
2022-09-12T19:11:50.833Z,48.47
2022-09-12T19:14:23.744Z,47.92
2022-09-12T19:16:52.253Z,48.89
2022-09-12T19:19:20.684Z,50.33
2022-09-12T19:21:48.692Z,50.47
2022-09-12T19:24:17.354Z,50.43
2022-09-12T19:26:45.658Z,51.06
2022-09-12T19:29:16.806Z,52.68
2022-09-12T19:31:46.112Z,52.48
2022-09-12T19:34:14.950Z,51.62
2022-09-12T19:36:46.378Z,51.89
2022-09-12T19:39:17.433Z,52.33
2022-09-12T19:41:45.721Z,52.19
2022-09-12T19:44:14.161Z,52.14
2022-09-12T19:46:42.324Z,52.02
2022-09-12T19:49:13.068Z,53.00
2022-09-12T19:51:41.122Z,52.57
2022-09-12T19:54:10.886Z,51.86
2022-09-12T19:56:38.999Z,52.51
2022-09-12T19:59:07.535Z,51.97
2022-09-12T20:01:37.573Z,52.60
2022-09-12T20:04:07.001Z,52.87
2022-09-12T20:06:35.098Z,53.22
2022-09-12T20:09:03.213Z,53.52
2022-09-12T20:11:31.598Z,53.40
2022-09-12T20:13:59.443Z,53.08
2022-09-12T20:16:29.646Z,53.60
2022-09-12T20:19:01.806Z,54.57
2022-09-12T20:21:32.090Z,54.11
2022-09-12T20:24:03.793Z,54.72
2022-09-12T20:26:33.226Z,54.57
2022-09-12T20:29:01.084Z,54.92
2022-09-12T20:31:29.025Z,54.70
2022-09-12T20:33:56.947Z,54.67
2022-09-12T20:36:25.328Z,54.78
2022-09-12T20:39:00.011Z,55.18
2022-09-12T20:41:30.086Z,54.62
2022-09-12T20:43:58.002Z,54.33
2022-09-12T20:46:27.368Z,54.89
2022-09-12T20:48:56.279Z,54.61
2022-09-12T20:51:26.772Z,55.22
2022-09-12T20:53:56.025Z,53.91
2022-09-12T20:56:24.160Z,55.14
2022-09-12T20:58:51.933Z,54.90
2022-09-12T21:01:20.790Z,54.78
2022-09-12T21:03:48.893Z,55.13
2022-09-12T21:06:17.470Z,55.05
2022-09-12T21:08:46.935Z,54.91
2022-09-12T21:11:15.311Z,55.13
2022-09-12T21:13:43.239Z,54.86
2022-09-12T21:16:14.510Z,55.08
2022-09-12T21:18:42.890Z,56.10
2022-09-12T21:21:15.517Z,55.41
2022-09-12T21:23:43.377Z,55.70
2022-09-12T21:26:11.334Z,56.44
2022-09-12T21:28:39.401Z,56.19
2022-09-12T21:31:07.627Z,55.58
2022-09-12T21:33:36.005Z,56.14
2022-09-12T21:36:07.349Z,56.75
2022-09-12T21:38:35.153Z,56.01
2022-09-12T21:41:08.716Z,56.59
2022-09-12T21:43:38.357Z,56.54
2022-09-12T21:46:06.943Z,56.10
2022-09-12T21:48:34.981Z,55.66
2022-09-12T21:51:03.488Z,56.34
2022-09-12T21:53:31.410Z,56.35
2022-09-12T21:56:07.140Z,56.44
2022-09-12T21:58:36.105Z,56.61
2022-09-12T22:01:06.103Z,56.28
2022-09-12T22:03:33.995Z,56.59
2022-09-12T22:06:04.061Z,55.73
2022-09-12T22:08:33.774Z,56.57
2022-09-12T22:11:05.733Z,56.57
2022-09-12T22:13:33.818Z,55.79
2022-09-12T22:16:03.321Z,56.18
2022-09-12T22:18:38.172Z,56.31
2022-09-12T22:21:24.973Z,56.59
2022-09-12T22:24:11.614Z,56.10
2022-09-12T22:26:42.277Z,56.44
2022-09-12T22:29:11.116Z,56.84
2022-09-12T22:31:39.541Z,56.52
2022-09-12T22:34:07.476Z,56.29
2022-09-12T22:36:38.807Z,56.87
2022-09-12T22:39:07.867Z,56.82
2022-09-12T22:41:35.659Z,56.11
2022-09-12T22:44:03.664Z,56.27
2022-09-12T22:46:31.651Z,57.19
2022-09-12T22:49:00.421Z,56.19
2022-09-12T22:51:28.222Z,56.78
2022-09-12T22:53:56.628Z,56.79
2022-09-12T22:56:24.981Z,57.17
2022-09-12T22:58:52.783Z,56.74
2022-09-12T23:01:20.606Z,56.76
2022-09-12T23:03:48.509Z,57.98
2022-09-12T23:06:17.056Z,57.62
2022-09-12T23:08:44.949Z,57.27
2022-09-12T23:11:15.351Z,57.84
2022-09-12T23:13:45.767Z,58.07
2022-09-12T23:16:23.764Z,57.76
2022-09-12T23:18:52.195Z,57.64
2022-09-12T23:21:21.543Z,57.85
2022-09-12T23:23:49.685Z,58.11
2022-09-12T23:26:20.896Z,58.29
2022-09-12T23:28:54.124Z,58.35
2022-09-12T23:31:24.416Z,58.22
2022-09-12T23:33:56.710Z,58.43
2022-09-12T23:36:25.843Z,58.18
2022-09-12T23:38:54.198Z,58.84
2022-09-12T23:41:22.677Z,58.66
2022-09-12T23:43:50.818Z,58.89
2022-09-12T23:46:19.335Z,60.34
2022-09-12T23:48:48.238Z,58.72
2022-09-12T23:51:16.587Z,59.86
2022-09-12T23:53:55.965Z,59.08
2022-09-12T23:56:29.554Z,59.10
2022-09-12T23:59:16.166Z,59.18
